Brewster, MA

7:19 AM EST on February 11, 2016 (GMT -0500)
RobDen | | Change Station
CLOSE
Current Station
Personal Weather Station
Location: Brewster, MA
Elevation: 39 ft
Nearby Weather Stations
Active Advisory: Special Statement

Elev 39 ft 41.77 °N, 70.07 °W | Updated 4 minutes ago

Clear
Clear
28.8 °F
Feels Like 29 °F
N
2.0
Wind Variable Wind from NW
Gusts 8.0 mph

Today
High -- | Low -- °F
--% Chance of Precip.
Yesterday
High -- | Low -- °F
Precip. -- in
Pressure 29.69 in
Visibility 10.0 miles
Clouds Clear
Windchill 29 °F
Dew Point 25 °F
Humidity 87%
Rainfall 0.00 in
Snow Depth Not available.
6:41 AM 5:07 PM
Waxing Crescent, 11% visible
METAR KCQX 111152Z AUTO 00000KT 10SM CLR M04/M07 A2969 RMK AO2 SLP054 70001 T10441067 11011 21044 53011
Pressure 29.69 in
Visibility 10.0 miles
Clouds Clear
Windchill 29 °F
Dew Point 25 °F
Humidity 87%
Rainfall 0.00 in
Snow Depth Not available.
6:41 AM 5:07 PM
Waxing Crescent, 11% visible
METAR KCQX 111152Z AUTO 00000KT 10SM CLR M04/M07 A2969 RMK AO2 SLP054 70001 T10441067 11011 21044 53011

10-Day Weather Forecast

Almanac

Astronomy

Feb. 11, 2016 Rise Set
Actual Time
Civil Twilight
Nautical Twilight
Astronomical Twilight
Moon
Length of Visible Light
Length of Day
Tomorrow will be .
, % of the Moon is Illuminated

Today's Extremes

State Highs State Lows

Community

WunderPhotos

Upload Photos

1,892,035 photos uploaded!

WunderBlog® & News

Nearby

Air Quality

  Air Quality AQ Index Pollutant
Not available.

Snow Depth

Station Depth Elevation

Earthquake Activity

City Distance Mag. Time & Date
Minimum magnitude displayed is 2.5.

Coastal Water Temperatures

Place Temperature

Stations

Nearby Weather Stations

Station Location Temp. Windchill Dew Point Humidity Wind Precip. Elev Updated Type
                   

Watches & Warnings

Special Statement
Issued: 3:06 AM EST Feb. 11, 2016 – National Weather Service

... Scattered snow showers and a few localized heavier snow squalls
expected today...

Scattered snow showers will develop through mid morning across
southern New England and continue into the afternoon. The activity
will be hit and miss with most locations receiving just a coating
to less than 1 inch of new snow. However... a few localized
heavier snow squalls are possible later this morning and
afternoon. Any localized snow squalls may put down a quick inch of
snow... resulting in roads quickly becoming snow covered along with
briefly poor visibility and gusty winds.

Motorists traveling today should be alert for rapidly changing
visibility and Road conditions in any heavier snow showers/squalls
that develop. The activity will come to an end this evening.


Frank